sensor_id;sensor_type;location;lat;lon;timestamp;pressure;altitude;pressure_sealevel;temperature;humidity
30949;BME280;17637;51.984;21.208;2023-01-05T00:00:29;99235.50;;;6.12;83.97
30949;BME280;17637;51.984;21.208;2023-01-05T00:03:03;99216.34;;;6.03;83.63
30949;BME280;17637;51.984;21.208;2023-01-05T00:05:36;99239.19;;;6.20;83.69
30949;BME280;17637;51.984;21.208;2023-01-05T00:08:07;99203.97;;;5.95;83.39
30949;BME280;17637;51.984;21.208;2023-01-05T00:10:39;99216.72;;;6.10;83.62
30949;BME280;17637;51.984;21.208;2023-01-05T00:13:30;99225.38;;;6.08;83.67
30949;BME280;17637;51.984;21.208;2023-01-05T00:16:21;99204.75;;;6.08;83.60
30949;BME280;17637;51.984;21.208;2023-01-05T00:19:11;99225.75;;;6.15;83.62
30949;BME280;17637;51.984;21.208;2023-01-05T00:22:28;99202.78;;;6.12;83.67
30949;BME280;17637;51.984;21.208;2023-01-05T00:25:19;99213.38;;;6.20;83.58
30949;BME280;17637;51.984;21.208;2023-01-05T00:27:53;99198.84;;;6.19;83.38
30949;BME280;17637;51.984;21.208;2023-01-05T00:30:28;99197.31;;;6.17;83.35
30949;BME280;17637;51.984;21.208;2023-01-05T00:33:00;99146.94;;;5.87;83.65
30949;BME280;17637;51.984;21.208;2023-01-05T00:35:32;99213.41;;;6.32;83.37
30949;BME280;17637;51.984;21.208;2023-01-05T00:38:05;99187.13;;;6.27;83.08
30949;BME280;17637;51.984;21.208;2023-01-05T00:40:37;99140.31;;;5.96;83.27
30949;BME280;17637;51.984;21.208;2023-01-05T00:43:09;99194.66;;;6.30;83.28
30949;BME280;17637;51.984;21.208;2023-01-05T00:45:42;99194.44;;;6.33;83.49
30949;BME280;17637;51.984;21.208;2023-01-05T00:48:14;99176.81;;;6.27;83.42
30949;BME280;17637;51.984;21.208;2023-01-05T00:50:48;99178.81;;;6.23;83.62
30949;BME280;17637;51.984;21.208;2023-01-05T00:53:20;99194.06;;;6.26;83.56
30949;BME280;17637;51.984;21.208;2023-01-05T00:56:01;99189.63;;;6.28;83.83
30949;BME280;17637;51.984;21.208;2023-01-05T00:58:33;99186.81;;;6.31;83.60
30949;BME280;17637;51.984;21.208;2023-01-05T01:01:11;99180.00;;;6.30;83.82
30949;BME280;17637;51.984;21.208;2023-01-05T01:03:44;99152.22;;;6.10;83.65
30949;BME280;17637;51.984;21.208;2023-01-05T01:06:16;99149.81;;;6.19;83.56
30949;BME280;17637;51.984;21.208;2023-01-05T01:08:48;99134.28;;;6.08;82.96
30949;BME280;17637;51.984;21.208;2023-01-05T01:11:20;99155.91;;;6.18;83.50
30949;BME280;17637;51.984;21.208;2023-01-05T01:13:52;99144.22;;;6.26;83.37
30949;BME280;17637;51.984;21.208;2023-01-05T01:16:24;99164.31;;;6.45;83.10
30949;BME280;17637;51.984;21.208;2023-01-05T01:18:56;99165.72;;;6.37;82.73
30949;BME280;17637;51.984;21.208;2023-01-05T01:21:34;99154.34;;;6.40;82.92
30949;BME280;17637;51.984;21.208;2023-01-05T01:24:06;99125.59;;;6.33;82.75
30949;BME280;17637;51.984;21.208;2023-01-05T01:26:38;99117.38;;;6.28;83.20
30949;BME280;17637;51.984;21.208;2023-01-05T01:29:10;99124.19;;;6.40;83.10
30949;BME280;17637;51.984;21.208;2023-01-05T01:31:43;99122.22;;;6.44;82.95
30949;BME280;17637;51.984;21.208;2023-01-05T01:34:16;99113.53;;;6.45;83.04
30949;BME280;17637;51.984;21.208;2023-01-05T01:36:48;99101.22;;;6.49;83.29
30949;BME280;17637;51.984;21.208;2023-01-05T01:39:21;99083.94;;;6.38;83.26
30949;BME280;17637;51.984;21.208;2023-01-05T01:41:53;99089.72;;;6.42;83.95
30949;BME280;17637;51.984;21.208;2023-01-05T01:47:40;99094.66;;;6.56;83.80
30949;BME280;17637;51.984;21.208;2023-01-05T01:50:18;99085.75;;;6.49;83.63
30949;BME280;17637;51.984;21.208;2023-01-05T01:52:54;99082.13;;;6.51;83.92
30949;BME280;17637;51.984;21.208;2023-01-05T01:55:29;99066.72;;;6.38;83.96
30949;BME280;17637;51.984;21.208;2023-01-05T01:58:04;99080.94;;;6.55;84.22
30949;BME280;17637;51.984;21.208;2023-01-05T02:00:39;99009.78;;;6.17;83.79
30949;BME280;17637;51.984;21.208;2023-01-05T02:03:12;99046.44;;;6.45;83.77
30949;BME280;17637;51.984;21.208;2023-01-05T02:05:45;99057.47;;;6.59;83.83
30949;BME280;17637;51.984;21.208;2023-01-05T02:08:17;99042.34;;;6.54;83.54
30949;BME280;17637;51.984;21.208;2023-01-05T02:11:10;99060.06;;;6.70;83.50
30949;BME280;17637;51.984;21.208;2023-01-05T02:22:26;99040.81;;;6.74;83.66
30949;BME280;17637;51.984;21.208;2023-01-05T02:31:24;99040.59;;;6.77;83.54
30949;BME280;17637;51.984;21.208;2023-01-05T02:36:55;99039.75;;;6.77;83.61
30949;BME280;17637;51.984;21.208;2023-01-05T02:39:55;99027.09;;;6.73;83.42
30949;BME280;17637;51.984;21.208;2023-01-05T02:42:30;99001.38;;;6.49;84.01
30949;BME280;17637;51.984;21.208;2023-01-05T02:45:06;99034.94;;;6.83;83.53
30949;BME280;17637;51.984;21.208;2023-01-05T02:47:41;99024.63;;;6.83;83.56
30949;BME280;17637;51.984;21.208;2023-01-05T02:50:18;99008.41;;;6.70;83.80
30949;BME280;17637;51.984;21.208;2023-01-05T03:00:55;98991.72;;;6.85;83.00
30949;BME280;17637;51.984;21.208;2023-01-05T03:03:39;98992.09;;;6.81;83.32
30949;BME280;17637;51.984;21.208;2023-01-05T03:09:05;98988.69;;;6.92;83.12
30949;BME280;17637;51.984;21.208;2023-01-05T03:12:00;98981.28;;;6.87;82.85
30949;BME280;17637;51.984;21.208;2023-01-05T03:14:57;99001.59;;;6.92;83.24
30949;BME280;17637;51.984;21.208;2023-01-05T03:17:34;98982.47;;;6.83;83.05
30949;BME280;17637;51.984;21.208;2023-01-05T03:20:07;98971.56;;;6.79;83.32
30949;BME280;17637;51.984;21.208;2023-01-05T03:22:41;98967.56;;;6.86;82.81
30949;BME280;17637;51.984;21.208;2023-01-05T03:25:37;98997.59;;;6.99;82.90
30949;BME280;17637;51.984;21.208;2023-01-05T03:28:40;98985.84;;;6.95;83.19
30949;BME280;17637;51.984;21.208;2023-01-05T03:31:43;98997.34;;;7.02;83.04
30949;BME280;17637;51.984;21.208;2023-01-05T03:34:42;98991.38;;;7.01;83.06
30949;BME280;17637;51.984;21.208;2023-01-05T03:37:37;98970.47;;;6.93;83.08
30949;BME280;17637;51.984;21.208;2023-01-05T03:40:15;98978.47;;;7.01;82.73
30949;BME280;17637;51.984;21.208;2023-01-05T03:42:50;98936.72;;;6.73;nan
30949;BME280;17637;51.984;21.208;2023-01-05T03:45:25;98961.47;;;6.87;82.63
30949;BME280;17637;51.984;21.208;2023-01-05T03:47:59;98970.34;;;6.95;83.13
30949;BME280;17637;51.984;21.208;2023-01-05T03:50:31;98968.22;;;7.00;83.14
30949;BME280;17637;51.984;21.208;2023-01-05T03:53:03;98967.50;;;7.09;82.82
30949;BME280;17637;51.984;21.208;2023-01-05T03:55:35;98955.22;;;6.90;82.74
30949;BME280;17637;51.984;21.208;2023-01-05T03:58:07;98959.09;;;6.84;83.21
30949;BME280;17637;51.984;21.208;2023-01-05T04:00:39;98931.41;;;6.86;82.99
30949;BME280;17637;51.984;21.208;2023-01-05T04:03:11;98943.00;;;6.92;82.93
30949;BME280;17637;51.984;21.208;2023-01-05T04:05:44;98906.09;;;6.69;83.09
30949;BME280;17637;51.984;21.208;2023-01-05T04:08:16;98937.84;;;6.92;82.71
30949;BME280;17637;51.984;21.208;2023-01-05T04:10:51;98913.59;;;6.83;83.40
30949;BME280;17637;51.984;21.208;2023-01-05T04:13:23;98937.97;;;6.90;83.58
30949;BME280;17637;51.984;21.208;2023-01-05T04:15:55;98935.19;;;6.82;83.90
30949;BME280;17637;51.984;21.208;2023-01-05T04:18:27;98922.00;;;6.85;83.66
30949;BME280;17637;51.984;21.208;2023-01-05T04:20:59;98921.88;;;6.87;83.51
30949;BME280;17637;51.984;21.208;2023-01-05T04:23:32;98934.91;;;6.97;83.50
30949;BME280;17637;51.984;21.208;2023-01-05T04:26:05;98939.34;;;6.95;83.49
30949;BME280;17637;51.984;21.208;2023-01-05T04:28:37;98935.25;;;6.92;83.70
30949;BME280;17637;51.984;21.208;2023-01-05T04:31:09;98941.00;;;6.96;83.57
30949;BME280;17637;51.984;21.208;2023-01-05T04:33:41;98934.91;;;6.97;83.20
30949;BME280;17637;51.984;21.208;2023-01-05T04:36:16;98914.25;;;6.85;83.41
30949;BME280;17637;51.984;21.208;2023-01-05T04:38:48;98943.72;;;6.94;83.58
30949;BME280;17637;51.984;21.208;2023-01-05T04:41:20;98932.94;;;6.89;83.52
30949;BME280;17637;51.984;21.208;2023-01-05T04:43:51;98941.09;;;7.05;83.44
30949;BME280;17637;51.984;21.208;2023-01-05T04:46:23;98912.41;;;6.87;83.41
30949;BME280;17637;51.984;21.208;2023-01-05T04:48:55;98916.84;;;6.85;83.25
30949;BME280;17637;51.984;21.208;2023-01-05T04:51:27;98931.13;;;7.01;83.28
30949;BME280;17637;51.984;21.208;2023-01-05T04:53:59;98907.72;;;6.81;83.76
30949;BME280;17637;51.984;21.208;2023-01-05T04:56:31;98916.25;;;6.93;83.94
30949;BME280;17637;51.984;21.208;2023-01-05T04:59:03;98936.38;;;7.11;83.54
30949;BME280;17637;51.984;21.208;2023-01-05T05:01:35;98928.81;;;6.98;83.76
30949;BME280;17637;51.984;21.208;2023-01-05T05:04:07;98930.94;;;6.93;83.72
30949;BME280;17637;51.984;21.208;2023-01-05T05:06:39;98936.66;;;6.96;83.60
30949;BME280;17637;51.984;21.208;2023-01-05T05:09:11;98943.56;;;7.07;83.76
30949;BME280;17637;51.984;21.208;2023-01-05T05:11:43;98932.78;;;7.02;83.33
30949;BME280;17637;51.984;21.208;2023-01-05T05:14:15;98923.06;;;6.94;83.46
30949;BME280;17637;51.984;21.208;2023-01-05T05:16:47;98940.03;;;7.08;83.18
30949;BME280;17637;51.984;21.208;2023-01-05T05:19:19;98920.34;;;6.96;83.08
30949;BME280;17637;51.984;21.208;2023-01-05T05:21:51;98942.63;;;7.08;83.00
30949;BME280;17637;51.984;21.208;2023-01-05T05:24:23;98934.28;;;7.04;83.15
30949;BME280;17637;51.984;21.208;2023-01-05T05:26:55;98939.78;;;7.11;82.79
30949;BME280;17637;51.984;21.208;2023-01-05T05:29:28;98898.44;;;6.79;83.11
30949;BME280;17637;51.984;21.208;2023-01-05T05:32:00;98935.34;;;7.02;82.63
30949;BME280;17637;51.984;21.208;2023-01-05T05:34:32;98918.13;;;6.91;82.42
30949;BME280;17637;51.984;21.208;2023-01-05T05:37:04;98934.66;;;7.00;82.50
30949;BME280;17637;51.984;21.208;2023-01-05T05:39:36;98926.56;;;6.93;82.47
30949;BME280;17637;51.984;21.208;2023-01-05T05:42:08;98927.16;;;6.97;82.06
30949;BME280;17637;51.984;21.208;2023-01-05T05:44:40;98942.88;;;7.05;82.04
30949;BME280;17637;51.984;21.208;2023-01-05T05:47:12;98926.09;;;6.99;81.78
30949;BME280;17637;51.984;21.208;2023-01-05T05:49:44;98924.13;;;6.92;81.60
30949;BME280;17637;51.984;21.208;2023-01-05T05:52:16;98948.03;;;7.05;81.65
30949;BME280;17637;51.984;21.208;2023-01-05T05:54:48;98945.19;;;7.08;81.33
30949;BME280;17637;51.984;21.208;2023-01-05T05:57:20;98935.47;;;7.00;80.72
30949;BME280;17637;51.984;21.208;2023-01-05T05:59:52;98934.91;;;6.97;80.80
30949;BME280;17637;51.984;21.208;2023-01-05T06:02:24;98927.88;;;6.87;81.04
30949;BME280;17637;51.984;21.208;2023-01-05T06:04:56;98925.97;;;6.89;80.40
30949;BME280;17637;51.984;21.208;2023-01-05T06:07:28;98914.88;;;6.78;80.67
30949;BME280;17637;51.984;21.208;2023-01-05T06:10:01;98952.84;;;6.98;80.68
30949;BME280;17637;51.984;21.208;2023-01-05T06:12:33;98952.47;;;7.14;80.40
30949;BME280;17637;51.984;21.208;2023-01-05T06:15:08;98959.63;;;7.11;80.35
30949;BME280;17637;51.984;21.208;2023-01-05T06:17:40;98945.03;;;6.88;80.26
30949;BME280;17637;51.984;21.208;2023-01-05T06:20:14;98955.44;;;6.98;80.14
30949;BME280;17637;51.984;21.208;2023-01-05T06:22:47;98906.78;;;6.71;80.44
30949;BME280;17637;51.984;21.208;2023-01-05T06:25:19;98954.50;;;6.99;80.02
30949;BME280;17637;51.984;21.208;2023-01-05T06:27:51;98966.03;;;6.95;80.32
30949;BME280;17637;51.984;21.208;2023-01-05T06:30:23;98959.34;;;6.93;80.10
30949;BME280;17637;51.984;21.208;2023-01-05T06:32:55;98959.78;;;6.98;79.92
30949;BME280;17637;51.984;21.208;2023-01-05T06:35:27;98953.00;;;6.85;79.72
30949;BME280;17637;51.984;21.208;2023-01-05T06:37:59;98949.94;;;6.92;79.02
30949;BME280;17637;51.984;21.208;2023-01-05T06:40:31;98964.47;;;7.04;79.13
30949;BME280;17637;51.984;21.208;2023-01-05T06:43:03;98964.81;;;6.99;79.29
30949;BME280;17637;51.984;21.208;2023-01-05T06:45:35;98953.78;;;6.97;79.15
30949;BME280;17637;51.984;21.208;2023-01-05T06:48:07;98945.22;;;6.97;79.22
30949;BME280;17637;51.984;21.208;2023-01-05T06:50:39;98969.88;;;7.01;79.10
30949;BME280;17637;51.984;21.208;2023-01-05T06:53:10;98973.28;;;7.01;79.30
30949;BME280;17637;51.984;21.208;2023-01-05T06:55:43;98946.28;;;6.94;79.40
30949;BME280;17637;51.984;21.208;2023-01-05T06:58:15;98972.56;;;7.11;79.37
30949;BME280;17637;51.984;21.208;2023-01-05T07:00:47;98973.28;;;7.01;79.24
30949;BME280;17637;51.984;21.208;2023-01-05T07:03:19;98968.47;;;6.97;79.53
30949;BME280;17637;51.984;21.208;2023-01-05T07:05:54;98979.72;;;7.07;79.53
30949;BME280;17637;51.984;21.208;2023-01-05T07:08:26;98974.81;;;7.04;79.05
30949;BME280;17637;51.984;21.208;2023-01-05T07:10:58;98980.88;;;7.14;79.38
30949;BME280;17637;51.984;21.208;2023-01-05T07:13:30;98958.63;;;6.90;79.21
30949;BME280;17637;51.984;21.208;2023-01-05T07:16:02;98964.09;;;7.09;78.85
30949;BME280;17637;51.984;21.208;2023-01-05T07:18:34;98968.44;;;7.08;79.56
30949;BME280;17637;51.984;21.208;2023-01-05T07:21:06;98973.81;;;7.16;78.94
30949;BME280;17637;51.984;21.208;2023-01-05T07:23:38;98983.22;;;7.17;78.86
30949;BME280;17637;51.984;21.208;2023-01-05T07:26:10;98966.78;;;7.18;78.85
30949;BME280;17637;51.984;21.208;2023-01-05T07:28:42;98955.06;;;7.14;78.74
30949;BME280;17637;51.984;21.208;2023-01-05T07:31:14;98940.28;;;7.05;78.73
30949;BME280;17637;51.984;21.208;2023-01-05T07:33:46;98975.78;;;7.24;78.96
30949;BME280;17637;51.984;21.208;2023-01-05T07:36:18;98980.47;;;7.30;78.85
30949;BME280;17637;51.984;21.208;2023-01-05T07:38:51;98988.53;;;7.37;78.60
30949;BME280;17637;51.984;21.208;2023-01-05T07:41:23;99006.41;;;7.40;79.04
30949;BME280;17637;51.984;21.208;2023-01-05T07:43:55;98993.03;;;7.35;79.11
30949;BME280;17637;51.984;21.208;2023-01-05T07:46:27;98981.75;;;7.36;78.88
30949;BME280;17637;51.984;21.208;2023-01-05T07:49:00;98992.19;;;7.34;78.77
30949;BME280;17637;51.984;21.208;2023-01-05T07:51:31;98994.91;;;7.33;79.31
30949;BME280;17637;51.984;21.208;2023-01-05T07:54:03;98957.63;;;7.14;79.64
30949;BME280;17637;51.984;21.208;2023-01-05T07:56:35;98964.91;;;7.20;79.91
30949;BME280;17637;51.984;21.208;2023-01-05T07:59:07;98986.22;;;7.34;79.38
30949;BME280;17637;51.984;21.208;2023-01-05T08:01:39;99000.66;;;7.36;79.60
30949;BME280;17637;51.984;21.208;2023-01-05T08:04:12;98985.97;;;7.37;78.83
30949;BME280;17637;51.984;21.208;2023-01-05T08:06:44;99000.03;;;7.44;79.34
30949;BME280;17637;51.984;21.208;2023-01-05T08:09:16;98980.13;;;7.35;78.58
30949;BME280;17637;51.984;21.208;2023-01-05T08:12:06;98992.28;;;7.44;79.03
30949;BME280;17637;51.984;21.208;2023-01-05T08:14:39;98988.50;;;7.48;78.16
30949;BME280;17637;51.984;21.208;2023-01-05T08:17:11;99007.50;;;7.59;78.95
30949;BME280;17637;51.984;21.208;2023-01-05T08:19:43;98993.28;;;7.64;78.14
30949;BME280;17637;51.984;21.208;2023-01-05T08:22:15;98992.13;;;7.57;78.05
30949;BME280;17637;51.984;21.208;2023-01-05T08:24:47;99006.56;;;7.60;77.79
30949;BME280;17637;51.984;21.208;2023-01-05T08:27:19;99010.03;;;7.70;77.38
30949;BME280;17637;51.984;21.208;2023-01-05T08:29:51;99021.00;;;7.62;76.41
30949;BME280;17637;51.984;21.208;2023-01-05T08:32:23;98985.88;;;7.60;76.32
30949;BME280;17637;51.984;21.208;2023-01-05T08:34:55;99004.13;;;7.79;76.03
30949;BME280;17637;51.984;21.208;2023-01-05T08:37:27;98985.31;;;7.56;74.46
30949;BME280;17637;51.984;21.208;2023-01-05T08:39:59;99009.06;;;7.82;75.31
30949;BME280;17637;51.984;21.208;2023-01-05T08:42:31;98992.56;;;7.62;74.94
30949;BME280;17637;51.984;21.208;2023-01-05T08:45:03;98992.06;;;7.68;75.31
30949;BME280;17637;51.984;21.208;2023-01-05T08:47:35;99018.34;;;7.85;74.86
30949;BME280;17637;51.984;21.208;2023-01-05T08:50:08;99007.84;;;7.86;75.22
30949;BME280;17637;51.984;21.208;2023-01-05T08:52:41;99016.41;;;7.87;75.33
30949;BME280;17637;51.984;21.208;2023-01-05T08:55:13;98995.25;;;7.72;74.38
30949;BME280;17637;51.984;21.208;2023-01-05T08:57:45;99012.44;;;7.83;74.53
30949;BME280;17637;51.984;21.208;2023-01-05T09:00:18;99025.59;;;7.91;73.97
30949;BME280;17637;51.984;21.208;2023-01-05T09:02:52;99012.59;;;7.81;74.34
30949;BME280;17637;51.984;21.208;2023-01-05T09:05:27;99033.16;;;8.04;73.42
30949;BME280;17637;51.984;21.208;2023-01-05T09:07:59;99019.41;;;8.03;73.34
30949;BME280;17637;51.984;21.208;2023-01-05T09:10:31;99028.00;;;8.04;72.39
30949;BME280;17637;51.984;21.208;2023-01-05T09:13:03;99025.06;;;8.18;72.72
30949;BME280;17637;51.984;21.208;2023-01-05T09:15:35;99036.66;;;8.45;72.19
30949;BME280;17637;51.984;21.208;2023-01-05T09:18:07;99011.56;;;8.36;71.88
30949;BME280;17637;51.984;21.208;2023-01-05T09:20:39;99017.50;;;8.48;71.59
30949;BME280;17637;51.984;21.208;2023-01-05T09:23:11;99021.47;;;8.52;71.94
30949;BME280;17637;51.984;21.208;2023-01-05T09:25:43;99016.81;;;8.25;72.14
30949;BME280;17637;51.984;21.208;2023-01-05T09:28:15;99001.19;;;8.05;71.86
30949;BME280;17637;51.984;21.208;2023-01-05T09:30:47;99035.88;;;8.02;72.63
30949;BME280;17637;51.984;21.208;2023-01-05T09:33:21;99029.19;;;8.00;72.21
30949;BME280;17637;51.984;21.208;2023-01-05T09:35:54;99053.16;;;8.02;71.89
30949;BME280;17637;51.984;21.208;2023-01-05T09:38:26;99041.78;;;7.93;72.90
30949;BME280;17637;51.984;21.208;2023-01-05T09:41:10;99050.94;;;7.76;72.42
30949;BME280;17637;51.984;21.208;2023-01-05T09:43:46;99044.94;;;7.76;72.58
30949;BME280;17637;51.984;21.208;2023-01-05T09:46:23;99043.88;;;7.78;72.62
30949;BME280;17637;51.984;21.208;2023-01-05T09:49:01;99035.44;;;7.65;73.28
30949;BME280;17637;51.984;21.208;2023-01-05T09:51:34;99063.53;;;7.69;73.62
30949;BME280;17637;51.984;21.208;2023-01-05T09:54:14;99046.69;;;7.43;74.30
30949;BME280;17637;51.984;21.208;2023-01-05T09:56:48;99054.50;;;7.64;74.22
30949;BME280;17637;51.984;21.208;2023-01-05T09:59:44;99042.47;;;7.42;75.01
30949;BME280;17637;51.984;21.208;2023-01-05T10:02:32;99025.13;;;7.32;74.71
30949;BME280;17637;51.984;21.208;2023-01-05T10:05:06;99043.97;;;7.55;74.80
30949;BME280;17637;51.984;21.208;2023-01-05T10:07:53;99058.94;;;7.73;74.38
30949;BME280;17637;51.984;21.208;2023-01-05T10:10:32;99054.75;;;7.61;73.82
30949;BME280;17637;51.984;21.208;2023-01-05T10:13:27;99047.91;;;7.38;75.03
30949;BME280;17637;51.984;21.208;2023-01-05T10:16:02;99052.00;;;7.41;75.57
30949;BME280;17637;51.984;21.208;2023-01-05T10:18:34;99034.41;;;7.23;74.94
30949;BME280;17637;51.984;21.208;2023-01-05T10:21:27;99043.38;;;7.08;75.45
30949;BME280;17637;51.984;21.208;2023-01-05T10:24:18;99065.16;;;7.27;75.32
30949;BME280;17637;51.984;21.208;2023-01-05T10:27:14;99056.63;;;7.15;75.38
30949;BME280;17637;51.984;21.208;2023-01-05T10:30:23;99064.56;;;7.34;75.46
30949;BME280;17637;51.984;21.208;2023-01-05T10:46:47;99069.06;;;7.65;74.79
30949;BME280;17637;51.984;21.208;2023-01-05T10:49:25;99064.50;;;7.57;74.85
30949;BME280;17637;51.984;21.208;2023-01-05T10:51:59;99068.53;;;7.50;74.79
30949;BME280;17637;51.984;21.208;2023-01-05T10:54:38;99069.34;;;7.50;74.47
30949;BME280;17637;51.984;21.208;2023-01-05T11:00:13;99059.91;;;7.61;74.53
30949;BME280;17637;51.984;21.208;2023-01-05T11:03:01;99064.59;;;7.67;74.14
30949;BME280;17637;51.984;21.208;2023-01-05T11:05:40;99067.97;;;7.46;75.75
30949;BME280;17637;51.984;21.208;2023-01-05T11:08:15;99076.22;;;7.29;77.02
30949;BME280;17637;51.984;21.208;2023-01-05T11:13:34;99077.63;;;7.21;77.55
30949;BME280;17637;51.984;21.208;2023-01-05T11:16:12;99084.31;;;7.35;77.33
30949;BME280;17637;51.984;21.208;2023-01-05T11:18:51;99084.31;;;7.24;77.36
30949;BME280;17637;51.984;21.208;2023-01-05T11:24:02;99071.31;;;7.26;77.15
30949;BME280;17637;51.984;21.208;2023-01-05T11:26:36;99092.09;;;7.13;76.87
30949;BME280;17637;51.984;21.208;2023-01-05T11:34:47;99091.28;;;7.12;77.12
30949;BME280;17637;51.984;21.208;2023-01-05T11:37:26;99092.66;;;7.28;76.87
30949;BME280;17637;51.984;21.208;2023-01-05T11:40:00;99081.06;;;7.11;75.53
30949;BME280;17637;51.984;21.208;2023-01-05T11:42:34;99069.44;;;7.05;75.43
30949;BME280;17637;51.984;21.208;2023-01-05T11:45:17;99080.00;;;7.13;75.37
30949;BME280;17637;51.984;21.208;2023-01-05T11:47:54;99088.47;;;7.04;74.27
30949;BME280;17637;51.984;21.208;2023-01-05T11:50:31;99049.38;;;6.86;73.63
30949;BME280;17637;51.984;21.208;2023-01-05T11:53:05;99061.47;;;6.85;72.83
30949;BME280;17637;51.984;21.208;2023-01-05T11:55:37;99053.97;;;6.82;73.19
30949;BME280;17637;51.984;21.208;2023-01-05T12:03:58;99083.31;;;7.04;72.36
30949;BME280;17637;51.984;21.208;2023-01-05T12:06:53;99085.41;;;7.10;71.87
30949;BME280;17637;51.984;21.208;2023-01-05T12:12:15;99089.84;;;7.31;71.40
30949;BME280;17637;51.984;21.208;2023-01-05T12:17:50;99087.00;;;7.45;71.77
30949;BME280;17637;51.984;21.208;2023-01-05T12:26:26;99086.31;;;7.32;71.04
30949;BME280;17637;51.984;21.208;2023-01-05T12:38:21;99101.19;;;7.51;70.28
30949;BME280;17637;51.984;21.208;2023-01-05T12:47:01;99097.09;;;7.37;67.47
30949;BME280;17637;51.984;21.208;2023-01-05T12:49:43;99086.75;;;7.37;66.64
30949;BME280;17637;51.984;21.208;2023-01-05T12:52:26;99087.44;;;7.62;66.54
30949;BME280;17637;51.984;21.208;2023-01-05T12:55:28;99084.06;;;7.50;64.85
30949;BME280;17637;51.984;21.208;2023-01-05T12:58:09;99091.69;;;7.51;65.52
30949;BME280;17637;51.984;21.208;2023-01-05T13:00:44;99087.34;;;7.41;65.10
30949;BME280;17637;51.984;21.208;2023-01-05T13:03:33;99099.34;;;7.42;65.43
30949;BME280;17637;51.984;21.208;2023-01-05T13:06:13;99082.69;;;7.23;65.02
30949;BME280;17637;51.984;21.208;2023-01-05T13:11:39;99094.28;;;7.40;64.96
30949;BME280;17637;51.984;21.208;2023-01-05T13:14:24;99091.84;;;7.27;64.20
30949;BME280;17637;51.984;21.208;2023-01-05T13:17:02;99093.50;;;7.28;64.92
30949;BME280;17637;51.984;21.208;2023-01-05T13:19:44;99099.59;;;7.27;63.18
30949;BME280;17637;51.984;21.208;2023-01-05T13:22:25;99081.28;;;7.19;62.75
30949;BME280;17637;51.984;21.208;2023-01-05T13:25:03;99117.09;;;7.12;62.54
30949;BME280;17637;51.984;21.208;2023-01-05T13:27:39;99111.22;;;7.21;62.95
30949;BME280;17637;51.984;21.208;2023-01-05T13:30:25;99104.91;;;7.03;65.17
30949;BME280;17637;51.984;21.208;2023-01-05T13:33:24;99114.31;;;7.15;65.32
30949;BME280;17637;51.984;21.208;2023-01-05T13:39:36;99118.97;;;6.76;68.40
30949;BME280;17637;51.984;21.208;2023-01-05T13:45:31;99123.03;;;6.56;69.42
30949;BME280;17637;51.984;21.208;2023-01-05T13:48:18;99128.09;;;6.57;70.40
30949;BME280;17637;51.984;21.208;2023-01-05T13:54:21;99140.59;;;6.28;70.38
30949;BME280;17637;51.984;21.208;2023-01-05T13:57:22;99126.25;;;6.24;70.29
30949;BME280;17637;51.984;21.208;2023-01-05T13:59:58;99140.59;;;6.28;70.80
30949;BME280;17637;51.984;21.208;2023-01-05T14:02:44;99131.66;;;6.21;70.40
30949;BME280;17637;51.984;21.208;2023-01-05T14:05:31;99145.78;;;6.15;71.19
30949;BME280;17637;51.984;21.208;2023-01-05T14:08:05;99138.72;;;6.06;70.73
30949;BME280;17637;51.984;21.208;2023-01-05T14:11:04;99152.53;;;6.18;71.91
30949;BME280;17637;51.984;21.208;2023-01-05T14:13:49;99153.41;;;6.05;71.84
30949;BME280;17637;51.984;21.208;2023-01-05T14:19:26;99166.50;;;6.02;71.61
30949;BME280;17637;51.984;21.208;2023-01-05T14:24:50;99159.59;;;6.03;72.03
30949;BME280;17637;51.984;21.208;2023-01-05T14:27:26;99164.88;;;6.01;72.17
30949;BME280;17637;51.984;21.208;2023-01-05T14:29:59;99160.13;;;5.95;72.04
30949;BME280;17637;51.984;21.208;2023-01-05T14:32:52;99146.84;;;5.88;73.25
30949;BME280;17637;51.984;21.208;2023-01-05T14:35:30;99156.94;;;5.91;72.75
30949;BME280;17637;51.984;21.208;2023-01-05T14:38:20;99163.50;;;5.96;72.80
30949;BME280;17637;51.984;21.208;2023-01-05T14:40:54;99128.88;;;5.63;72.54
30949;BME280;17637;51.984;21.208;2023-01-05T14:43:32;99168.06;;;5.92;73.12
30949;BME280;17637;51.984;21.208;2023-01-05T14:46:12;99162.91;;;5.92;73.57
30949;BME280;17637;51.984;21.208;2023-01-05T14:49:06;99167.25;;;5.91;74.25
30949;BME280;17637;51.984;21.208;2023-01-05T14:51:53;99152.09;;;5.87;74.09
30949;BME280;17637;51.984;21.208;2023-01-05T15:05:47;99174.78;;;5.82;74.27
30949;BME280;17637;51.984;21.208;2023-01-05T15:08:53;99159.88;;;5.74;74.34
30949;BME280;17637;51.984;21.208;2023-01-05T15:11:53;99180.69;;;5.84;74.24
30949;BME280;17637;51.984;21.208;2023-01-05T15:31:31;99173.69;;;6.10;73.31
30949;BME280;17637;51.984;21.208;2023-01-05T15:39:49;99148.56;;;6.01;72.71
30949;BME280;17637;51.984;21.208;2023-01-05T15:42:41;99168.94;;;6.17;72.08
30949;BME280;17637;51.984;21.208;2023-01-05T15:48:07;99153.72;;;6.01;72.61
30949;BME280;17637;51.984;21.208;2023-01-05T15:50:48;99172.53;;;6.14;71.95
30949;BME280;17637;51.984;21.208;2023-01-05T15:53:33;99165.66;;;6.26;71.95
30949;BME280;17637;51.984;21.208;2023-01-05T15:56:33;99172.31;;;6.17;72.12
30949;BME280;17637;51.984;21.208;2023-01-05T15:59:29;99171.63;;;6.27;72.83
30949;BME280;17637;51.984;21.208;2023-01-05T16:02:15;99112.13;;;5.81;72.32
30949;BME280;17637;51.984;21.208;2023-01-05T16:04:47;99165.31;;;6.19;73.31
30949;BME280;17637;51.984;21.208;2023-01-05T16:07:19;99164.31;;;6.09;73.61
30949;BME280;17637;51.984;21.208;2023-01-05T16:09:51;99173.19;;;6.05;73.44
30949;BME280;17637;51.984;21.208;2023-01-05T16:12:23;99155.63;;;5.86;74.14
30949;BME280;17637;51.984;21.208;2023-01-05T16:15:01;99180.13;;;6.04;74.70
30949;BME280;17637;51.984;21.208;2023-01-05T16:17:35;99170.13;;;6.00;73.99